createdAt,value
2022-12-28T00:02:18.698Z,3.26
2022-12-28T00:04:48.036Z,3.28
2022-12-28T00:07:17.260Z,3.30
2022-12-28T00:09:45.773Z,3.33
2022-12-28T00:12:14.303Z,3.28
2022-12-28T00:14:43.103Z,3.27
2022-12-28T00:17:14.898Z,3.23
2022-12-28T00:19:43.615Z,3.19
2022-12-28T00:22:12.289Z,3.21
2022-12-28T00:24:40.874Z,3.22
2022-12-28T00:27:09.607Z,3.17
2022-12-28T00:29:38.292Z,3.15
2022-12-28T00:32:06.847Z,3.19
2022-12-28T00:34:35.361Z,3.18
2022-12-28T00:37:08.884Z,3.16
2022-12-28T00:39:42.604Z,3.13
2022-12-28T00:42:11.460Z,3.08
2022-12-28T00:44:40.296Z,3.04
2022-12-28T00:47:09.406Z,3.05
2022-12-28T00:49:40.925Z,3.05
2022-12-28T00:52:09.397Z,3.03
2022-12-28T00:54:37.860Z,2.99
2022-12-28T00:57:06.453Z,2.98
2022-12-28T00:59:35.178Z,2.92
2022-12-28T01:02:03.743Z,2.90
2022-12-28T01:04:32.342Z,2.90
2022-12-28T01:07:00.960Z,2.93
2022-12-28T01:09:32.801Z,2.92
2022-12-28T01:12:01.303Z,2.90
2022-12-28T01:14:29.844Z,2.90
2022-12-28T01:16:58.518Z,2.89
2022-12-28T01:19:27.244Z,2.84
2022-12-28T01:21:58.180Z,2.89
2022-12-28T01:24:26.671Z,2.91
2022-12-28T01:26:55.206Z,2.89
2022-12-28T01:29:23.765Z,2.87
2022-12-28T01:31:52.201Z,2.84
2022-12-28T01:34:20.769Z,2.89
2022-12-28T01:36:49.196Z,2.97
2022-12-28T01:39:17.673Z,3.04
2022-12-28T01:41:46.752Z,3.09
2022-12-28T01:44:15.376Z,3.09
2022-12-28T01:46:50.159Z,3.05
2022-12-28T01:49:25.381Z,2.97
2022-12-28T01:52:35.828Z,2.92
2022-12-28T01:55:11.075Z,2.88
2022-12-28T01:57:54.335Z,2.88
2022-12-28T02:00:24.565Z,2.96
2022-12-28T02:03:07.666Z,2.99
2022-12-28T02:05:43.611Z,3.00
2022-12-28T02:08:19.765Z,3.01
2022-12-28T02:10:48.754Z,3.05
2022-12-28T02:13:19.220Z,3.07
2022-12-28T02:15:49.620Z,3.14
2022-12-28T02:18:20.202Z,3.21
2022-12-28T02:21:10.305Z,3.25
2022-12-28T02:24:07.215Z,3.29
2022-12-28T02:26:47.522Z,3.31
2022-12-28T02:29:15.936Z,3.27
2022-12-28T02:31:47.424Z,3.22
2022-12-28T02:34:46.228Z,3.19
2022-12-28T02:37:51.878Z,3.23
2022-12-28T02:40:45.748Z,3.30
2022-12-28T02:43:15.050Z,3.36
2022-12-28T02:46:03.384Z,3.40
2022-12-28T02:49:02.539Z,3.40
2022-12-28T02:52:12.458Z,3.41
2022-12-28T02:55:29.819Z,3.39
2022-12-28T02:58:16.831Z,3.36
2022-12-28T03:00:57.167Z,3.38
2022-12-28T03:03:39.535Z,3.39
2022-12-28T03:06:34.753Z,3.45
2022-12-28T03:09:07.622Z,3.43
2022-12-28T03:11:54.058Z,3.37
2022-12-28T03:14:45.079Z,3.35
2022-12-28T03:17:34.565Z,3.37
2022-12-28T03:20:29.811Z,3.36
2022-12-28T03:23:21.615Z,3.39
2022-12-28T03:26:10.299Z,3.35
2022-12-28T03:29:04.056Z,3.26
2022-12-28T03:31:36.777Z,3.23
2022-12-28T03:34:08.943Z,3.28
2022-12-28T03:37:41.807Z,3.28
2022-12-28T03:40:28.101Z,3.22
2022-12-28T03:43:23.190Z,3.20
2022-12-28T03:46:03.075Z,3.15
2022-12-28T03:48:37.680Z,3.11
2022-12-28T03:51:06.340Z,3.00
2022-12-28T03:53:41.284Z,2.95
2022-12-28T03:56:20.099Z,2.90
2022-12-28T03:58:50.215Z,2.93
2022-12-28T04:01:21.287Z,2.89
2022-12-28T04:03:50.334Z,2.81
2022-12-28T04:06:20.382Z,2.73
2022-12-28T04:08:48.935Z,2.68
2022-12-28T04:11:17.427Z,2.65
2022-12-28T04:13:49.882Z,2.66
2022-12-28T04:16:19.551Z,2.68
2022-12-28T04:18:48.562Z,2.68
2022-12-28T04:21:17.172Z,2.64
2022-12-28T04:23:46.763Z,2.64
2022-12-28T04:26:22.045Z,2.65
2022-12-28T04:28:53.523Z,2.65
2022-12-28T04:31:25.105Z,2.68
2022-12-28T04:33:59.580Z,2.64
2022-12-28T04:36:28.901Z,2.55
2022-12-28T04:38:58.846Z,2.55
2022-12-28T04:41:27.799Z,2.55
2022-12-28T04:43:56.460Z,2.49
2022-12-28T04:46:25.239Z,2.47
2022-12-28T04:48:53.726Z,2.44
2022-12-28T04:51:25.336Z,2.38
2022-12-28T04:53:55.858Z,2.32
2022-12-28T04:56:26.225Z,2.29
2022-12-28T04:58:56.450Z,2.21
2022-12-28T05:01:25.352Z,2.15
2022-12-28T05:03:58.057Z,2.18
2022-12-28T05:06:29.527Z,2.20
2022-12-28T05:08:58.364Z,2.15
2022-12-28T05:11:28.895Z,2.13
2022-12-28T05:13:57.895Z,2.09
2022-12-28T05:16:29.858Z,2.10
2022-12-28T05:18:58.557Z,2.06
2022-12-28T05:21:28.929Z,1.96
2022-12-28T05:23:58.648Z,1.91
2022-12-28T05:26:29.730Z,1.93
2022-12-28T05:28:59.076Z,1.97
2022-12-28T05:31:28.062Z,1.96
2022-12-28T05:33:56.593Z,1.91
2022-12-28T05:36:27.335Z,1.93
2022-12-28T05:38:56.978Z,1.90
2022-12-28T05:41:30.295Z,1.89
2022-12-28T05:43:59.856Z,1.92
2022-12-28T05:46:30.932Z,2.00
2022-12-28T05:49:00.612Z,2.07
2022-12-28T05:51:31.775Z,2.11
2022-12-28T05:54:01.806Z,2.12
2022-12-28T05:56:32.468Z,2.20
2022-12-28T05:59:05.819Z,2.17
2022-12-28T06:01:38.542Z,2.18
2022-12-28T06:04:13.786Z,2.13
2022-12-28T06:06:43.132Z,2.10
2022-12-28T06:09:12.288Z,2.13
2022-12-28T06:11:40.903Z,2.16
2022-12-28T06:14:09.754Z,2.19
2022-12-28T06:16:42.176Z,2.20
2022-12-28T06:19:14.855Z,2.20
2022-12-28T06:21:43.892Z,2.18
2022-12-28T06:24:14.035Z,2.17
2022-12-28T06:26:42.757Z,2.23
2022-12-28T06:29:12.750Z,2.25
2022-12-28T06:31:47.250Z,2.24
2022-12-28T06:34:15.805Z,2.25
2022-12-28T06:36:46.442Z,2.33
2022-12-28T06:39:15.130Z,2.34
2022-12-28T06:41:43.886Z,2.25
2022-12-28T06:44:13.887Z,2.21
2022-12-28T06:46:42.638Z,2.16
2022-12-28T06:49:11.176Z,2.16
2022-12-28T06:51:42.259Z,2.19
2022-12-28T06:54:11.704Z,2.20
2022-12-28T06:56:40.370Z,2.17
2022-12-28T06:59:08.911Z,2.14
2022-12-28T07:01:40.164Z,2.13
2022-12-28T07:04:10.391Z,2.12
2022-12-28T07:06:44.327Z,2.11
2022-12-28T07:09:16.296Z,2.13
2022-12-28T07:11:45.484Z,2.18
2022-12-28T07:14:14.339Z,2.18
2022-12-28T07:16:42.985Z,2.20
2022-12-28T07:19:11.489Z,2.21
2022-12-28T07:21:40.718Z,2.24
2022-12-28T07:24:09.615Z,2.26
2022-12-28T07:26:38.435Z,2.25
2022-12-28T07:29:08.842Z,2.26
2022-12-28T07:31:45.126Z,2.30
2022-12-28T07:34:17.473Z,2.29
2022-12-28T07:36:46.060Z,2.31
2022-12-28T07:39:14.555Z,2.36
2022-12-28T07:41:44.234Z,2.39
2022-12-28T07:44:12.833Z,2.41
2022-12-28T07:46:41.333Z,2.42
2022-12-28T07:49:09.808Z,2.48
2022-12-28T07:51:39.288Z,2.49
2022-12-28T07:54:07.964Z,2.49
2022-12-28T07:59:06.274Z,2.49
2022-12-28T08:01:36.914Z,2.49
2022-12-28T08:04:09.323Z,2.51
2022-12-28T08:06:40.931Z,2.55
2022-12-28T08:09:11.989Z,2.59
2022-12-28T08:11:43.203Z,2.57
2022-12-28T08:14:12.462Z,2.56
2022-12-28T08:16:43.462Z,2.56
2022-12-28T08:19:12.519Z,2.60
2022-12-28T08:21:44.977Z,2.66
2022-12-28T08:24:17.229Z,2.70
2022-12-28T08:26:46.403Z,2.73
2022-12-28T08:29:19.300Z,2.79
2022-12-28T08:31:49.238Z,2.77
2022-12-28T08:34:22.712Z,2.77
2022-12-28T08:36:51.470Z,2.74
2022-12-28T08:39:20.081Z,2.71
2022-12-28T08:41:48.636Z,2.67
2022-12-28T08:44:17.171Z,2.64
2022-12-28T08:46:45.785Z,2.63
2022-12-28T08:49:14.509Z,2.58
2022-12-28T08:51:43.061Z,2.56
2022-12-28T08:54:13.827Z,2.57
2022-12-28T08:56:44.719Z,2.62
2022-12-28T08:59:18.140Z,2.64
2022-12-28T09:01:47.591Z,2.64
2022-12-28T09:04:19.408Z,2.66
2022-12-28T09:06:48.997Z,2.69
2022-12-28T09:09:19.829Z,2.70
2022-12-28T09:11:48.865Z,2.71
2022-12-28T09:14:23.652Z,2.73
2022-12-28T09:16:54.324Z,2.69
2022-12-28T09:19:23.281Z,2.66
2022-12-28T09:21:53.457Z,2.68
2022-12-28T09:24:23.380Z,2.69
2022-12-28T09:26:54.775Z,2.70
2022-12-28T09:29:23.513Z,2.73
2022-12-28T09:31:51.981Z,2.72
2022-12-28T09:34:35.572Z,2.68
2022-12-28T09:37:06.663Z,2.69
2022-12-28T09:39:37.142Z,2.74
2022-12-28T09:42:21.747Z,2.75
2022-12-28T09:44:59.711Z,2.72
2022-12-28T09:47:30.826Z,2.71
2022-12-28T09:50:05.075Z,2.65
2022-12-28T09:52:53.496Z,2.61
2022-12-28T09:55:22.851Z,2.63
2022-12-28T09:57:55.788Z,2.70
2022-12-28T10:00:26.992Z,2.73
2022-12-28T10:03:02.846Z,2.77
2022-12-28T10:05:31.616Z,2.77
2022-12-28T10:08:01.741Z,2.78
2022-12-28T10:10:30.732Z,2.79
2022-12-28T10:13:45.634Z,2.80
2022-12-28T10:16:06.619Z,2.79
2022-12-28T10:18:39.573Z,2.84
2022-12-28T10:21:08.671Z,2.87
2022-12-28T10:23:56.795Z,2.93
2022-12-28T10:26:28.604Z,2.95
2022-12-28T10:29:01.042Z,3.05
2022-12-28T10:31:35.701Z,3.09
2022-12-28T10:34:23.277Z,3.04
2022-12-28T10:36:54.457Z,3.00
2022-12-28T10:39:29.941Z,2.98
2022-12-28T10:42:00.976Z,3.01
2022-12-28T10:44:40.717Z,3.04
2022-12-28T10:47:35.961Z,3.03
2022-12-28T10:52:58.651Z,3.07
2022-12-28T10:55:30.263Z,3.08
2022-12-28T10:58:32.073Z,3.14
2022-12-28T11:01:04.443Z,3.14
2022-12-28T11:03:35.827Z,3.12
2022-12-28T11:06:27.497Z,3.12
2022-12-28T11:09:07.108Z,3.14
2022-12-28T11:11:35.555Z,3.16
2022-12-28T11:14:12.887Z,3.16
2022-12-28T11:16:42.396Z,3.22
2022-12-28T11:19:12.904Z,3.25
2022-12-28T11:21:43.385Z,3.26
2022-12-28T11:24:16.497Z,3.30
2022-12-28T11:26:48.396Z,3.33
2022-12-28T11:29:19.295Z,3.31
2022-12-28T11:32:05.595Z,3.30
2022-12-28T11:34:37.380Z,3.35
2022-12-28T11:37:15.124Z,3.44
2022-12-28T11:39:48.917Z,3.48
2022-12-28T11:42:41.380Z,3.53
2022-12-28T11:45:37.237Z,3.60
2022-12-28T11:48:44.317Z,3.63
2022-12-28T11:51:21.742Z,3.72
2022-12-28T11:53:51.960Z,3.77
2022-12-28T11:56:22.801Z,3.81
2022-12-28T11:59:02.207Z,3.89
2022-12-28T12:01:30.982Z,4.03
2022-12-28T12:03:59.575Z,4.12
2022-12-28T12:06:43.511Z,4.18
2022-12-28T12:09:21.255Z,4.24
2022-12-28T12:12:19.755Z,4.22
2022-12-28T12:15:02.176Z,4.22
2022-12-28T12:17:43.101Z,4.15
2022-12-28T12:20:30.798Z,4.11
2022-12-28T12:23:08.348Z,4.09
2022-12-28T12:25:43.068Z,4.06
2022-12-28T12:28:21.179Z,4.08
2022-12-28T12:30:51.040Z,4.11
2022-12-28T12:33:27.506Z,4.15
2022-12-28T12:36:20.876Z,4.16
2022-12-28T12:39:18.297Z,4.18
2022-12-28T12:41:47.046Z,4.17
2022-12-28T12:44:53.605Z,4.15
2022-12-28T12:48:00.358Z,4.12
2022-12-28T12:50:47.148Z,4.08
2022-12-28T12:53:30.938Z,4.06
2022-12-28T12:56:24.255Z,4.02
2022-12-28T12:59:23.761Z,4.03
2022-12-28T13:02:30.290Z,4.04
2022-12-28T13:05:03.413Z,4.05
2022-12-28T13:07:33.684Z,4.09
2022-12-28T13:10:04.475Z,4.10
2022-12-28T13:12:32.994Z,4.09
2022-12-28T13:15:07.530Z,4.04
2022-12-28T13:18:11.286Z,3.99
2022-12-28T13:20:58.440Z,4.04
2022-12-28T13:23:29.268Z,4.04
2022-12-28T13:26:02.431Z,4.05
2022-12-28T13:28:34.872Z,4.04
2022-12-28T13:31:09.345Z,4.01
2022-12-28T13:33:39.214Z,4.02
2022-12-28T13:36:13.792Z,4.02
2022-12-28T13:38:42.322Z,4.00
2022-12-28T13:41:32.560Z,3.98
2022-12-28T13:44:36.316Z,3.99
2022-12-28T13:47:25.517Z,4.04
2022-12-28T13:50:02.120Z,4.08
2022-12-28T13:52:39.337Z,4.06
2022-12-28T13:55:13.622Z,4.09
2022-12-28T13:57:50.151Z,4.14
2022-12-28T14:00:22.704Z,4.15
2022-12-28T14:02:54.116Z,4.15
2022-12-28T14:05:31.145Z,4.18
2022-12-28T14:08:00.824Z,4.18
2022-12-28T14:10:29.631Z,4.18
2022-12-28T14:12:59.254Z,4.17
2022-12-28T14:15:28.170Z,4.17
2022-12-28T14:17:57.444Z,4.12
2022-12-28T14:20:26.116Z,4.07
2022-12-28T14:22:54.774Z,4.09
2022-12-28T14:25:23.869Z,4.13
2022-12-28T14:27:57.243Z,4.15
2022-12-28T14:30:55.936Z,4.15
2022-12-28T14:33:29.754Z,4.12
2022-12-28T14:36:02.405Z,4.09
2022-12-28T14:38:46.287Z,4.09
2022-12-28T14:41:25.851Z,4.11
2022-12-28T14:43:57.572Z,4.12
2022-12-28T14:46:36.066Z,4.15
2022-12-28T14:49:29.272Z,4.13
2022-12-28T14:52:17.970Z,4.06
2022-12-28T14:54:52.031Z,4.07
2022-12-28T14:57:41.664Z,4.09
2022-12-28T15:00:16.523Z,4.08
2022-12-28T15:02:45.509Z,4.07
2022-12-28T15:05:36.261Z,4.08
2022-12-28T15:08:05.143Z,4.12
2022-12-28T15:10:39.114Z,4.17
2022-12-28T15:13:08.316Z,4.16
2022-12-28T15:15:37.007Z,4.18
2022-12-28T15:18:05.717Z,4.26
2022-12-28T15:20:37.260Z,4.28
2022-12-28T15:23:05.924Z,4.24
2022-12-28T15:25:35.701Z,4.28
2022-12-28T15:28:04.621Z,4.29
2022-12-28T15:30:33.145Z,4.29
2022-12-28T15:33:01.583Z,4.33
2022-12-28T15:35:30.067Z,4.36
2022-12-28T15:37:58.563Z,4.38
2022-12-28T15:40:27.125Z,4.42
2022-12-28T15:42:55.894Z,4.40
2022-12-28T15:45:24.533Z,4.38
2022-12-28T15:47:54.463Z,4.37
2022-12-28T15:50:23.113Z,4.30
2022-12-28T15:52:51.608Z,4.29
2022-12-28T15:55:20.098Z,4.33
2022-12-28T15:57:48.571Z,4.33
2022-12-28T16:00:19.057Z,4.38
2022-12-28T16:02:47.728Z,4.40
2022-12-28T16:05:16.685Z,4.38
2022-12-28T16:07:45.156Z,4.37
2022-12-28T16:10:13.714Z,4.37
2022-12-28T16:12:42.161Z,4.37
2022-12-28T16:15:11.255Z,4.35
2022-12-28T16:17:48.604Z,4.37
2022-12-28T16:20:21.688Z,4.42
2022-12-28T16:22:50.176Z,4.44
2022-12-28T16:25:18.719Z,4.44
2022-12-28T16:27:47.212Z,4.41
2022-12-28T16:30:15.745Z,4.33
2022-12-28T16:32:46.526Z,4.28
2022-12-28T16:35:15.666Z,4.26
2022-12-28T16:37:44.125Z,4.27
2022-12-28T16:40:12.768Z,4.29
2022-12-28T16:42:45.944Z,4.32
2022-12-28T16:45:15.154Z,4.33
2022-12-28T16:47:45.054Z,4.35
2022-12-28T16:50:16.796Z,4.41
2022-12-28T16:52:45.422Z,4.41
2022-12-28T16:55:13.950Z,4.44
2022-12-28T16:57:42.418Z,4.47
2022-12-28T17:00:11.741Z,4.44
2022-12-28T17:02:40.438Z,4.43
2022-12-28T17:05:09.442Z,4.40
2022-12-28T17:07:37.949Z,4.44
2022-12-28T17:10:07.037Z,4.48
2022-12-28T17:12:35.534Z,4.47
2022-12-28T17:15:05.452Z,4.50
2022-12-28T17:17:34.145Z,4.49
2022-12-28T17:20:02.645Z,4.48
2022-12-28T17:22:31.191Z,4.54
2022-12-28T17:24:59.757Z,4.56
2022-12-28T17:27:28.555Z,4.55
2022-12-28T17:29:57.219Z,4.61
2022-12-28T17:32:25.906Z,4.63
2022-12-28T17:34:54.520Z,4.64
2022-12-28T17:37:23.019Z,4.64
2022-12-28T17:39:51.503Z,4.61
2022-12-28T17:42:20.204Z,4.64
2022-12-28T17:44:48.895Z,4.70
2022-12-28T17:47:17.354Z,4.72
2022-12-28T17:49:45.866Z,4.74
2022-12-28T17:52:20.198Z,4.75
2022-12-28T17:54:48.750Z,4.77
2022-12-28T17:57:17.948Z,4.79
2022-12-28T17:59:46.405Z,4.82
2022-12-28T18:02:15.138Z,4.85
2022-12-28T18:04:43.828Z,4.90
2022-12-28T18:07:12.662Z,4.94
2022-12-28T18:09:41.152Z,4.97
2022-12-28T18:12:09.713Z,4.98
2022-12-28T18:14:38.262Z,4.97
2022-12-28T18:17:06.799Z,4.94
2022-12-28T18:19:35.375Z,4.95
2022-12-28T18:22:04.085Z,4.97
2022-12-28T18:24:32.924Z,5.00
2022-12-28T18:27:01.372Z,5.02
2022-12-28T18:29:30.078Z,5.11
2022-12-28T18:31:58.615Z,5.13
2022-12-28T18:34:27.055Z,5.14
2022-12-28T18:36:55.517Z,5.16
2022-12-28T18:39:24.025Z,5.16
2022-12-28T18:41:52.547Z,5.13
2022-12-28T18:44:21.169Z,5.16
2022-12-28T18:46:49.654Z,5.20
2022-12-28T18:49:18.652Z,5.24
2022-12-28T18:51:47.336Z,5.24
2022-12-28T18:54:15.843Z,5.22
2022-12-28T18:56:44.693Z,5.21
2022-12-28T18:59:13.290Z,5.22
2022-12-28T19:04:30.411Z,5.26
2022-12-28T19:06:59.084Z,5.25
2022-12-28T19:09:27.560Z,5.26
2022-12-28T19:11:56.313Z,5.30
2022-12-28T19:14:24.851Z,5.36
2022-12-28T19:16:53.332Z,5.36
2022-12-28T19:19:21.955Z,5.36
2022-12-28T19:21:56.635Z,5.37
2022-12-28T19:24:27.210Z,5.39
2022-12-28T19:26:55.692Z,5.37
2022-12-28T19:29:24.813Z,5.36
2022-12-28T19:31:54.093Z,5.36
2022-12-28T19:34:22.874Z,5.39
2022-12-28T19:36:51.302Z,5.45
2022-12-28T19:39:20.229Z,5.46
2022-12-28T19:41:48.664Z,5.44
2022-12-28T19:44:20.295Z,5.43
2022-12-28T19:46:49.213Z,5.45
2022-12-28T19:49:17.722Z,5.50
2022-12-28T19:51:46.195Z,5.53
2022-12-28T19:54:15.150Z,5.55
2022-12-28T19:56:44.788Z,5.55
2022-12-28T19:59:13.440Z,5.53
2022-12-28T20:01:42.242Z,5.53
2022-12-28T20:04:14.030Z,5.57
2022-12-28T20:06:44.412Z,5.61
2022-12-28T20:09:14.189Z,5.64
2022-12-28T20:11:44.995Z,5.63
2022-12-28T20:14:19.092Z,5.65
2022-12-28T20:16:51.874Z,5.65
2022-12-28T20:19:20.527Z,5.64
2022-12-28T20:21:49.887Z,5.63
2022-12-28T20:24:20.074Z,5.62
2022-12-28T20:26:48.958Z,5.66
2022-12-28T20:29:18.572Z,5.71
2022-12-28T20:31:49.573Z,5.75
2022-12-28T20:34:18.303Z,5.80
2022-12-28T20:36:46.765Z,5.79
2022-12-28T20:39:15.551Z,5.77
2022-12-28T20:42:03.111Z,5.77
2022-12-28T20:44:34.184Z,5.78
2022-12-28T20:47:03.170Z,5.79
2022-12-28T20:49:32.137Z,5.81
2022-12-28T20:52:00.596Z,5.81
2022-12-28T20:54:29.176Z,5.81
2022-12-28T20:56:57.699Z,5.84
2022-12-28T20:59:26.331Z,5.89
2022-12-28T21:01:55.040Z,5.92
2022-12-28T21:04:24.989Z,5.94
2022-12-28T21:06:54.769Z,5.97
2022-12-28T21:09:23.321Z,6.02
2022-12-28T21:11:52.113Z,6.08
2022-12-28T21:14:20.795Z,6.08
2022-12-28T21:16:49.487Z,6.09
2022-12-28T21:19:18.093Z,6.08
2022-12-28T21:21:48.506Z,6.10
2022-12-28T21:24:17.140Z,6.14
2022-12-28T21:26:45.685Z,6.13
2022-12-28T21:29:14.327Z,6.15
2022-12-28T21:31:43.874Z,6.17
2022-12-28T21:34:12.347Z,6.17
2022-12-28T21:36:40.925Z,6.15
2022-12-28T21:39:09.922Z,6.20
2022-12-28T21:41:50.624Z,6.22
2022-12-28T21:44:24.610Z,6.22
2022-12-28T21:46:53.975Z,6.24
2022-12-28T21:49:22.695Z,6.22
2022-12-28T21:51:51.648Z,6.19
2022-12-28T21:54:21.736Z,6.15
2022-12-28T21:56:53.042Z,6.14
2022-12-28T21:59:23.623Z,6.17
2022-12-28T22:02:11.843Z,6.22
2022-12-28T22:05:03.049Z,6.27
2022-12-28T22:07:34.968Z,6.23
2022-12-28T22:10:22.514Z,6.27
2022-12-28T22:12:50.947Z,6.28
2022-12-28T22:15:40.806Z,6.26
2022-12-28T22:21:09.772Z,6.24
2022-12-28T22:23:38.479Z,6.23
2022-12-28T22:26:07.173Z,6.25
2022-12-28T22:28:35.843Z,6.26
2022-12-28T22:31:06.355Z,6.27
2022-12-28T22:33:34.970Z,6.36
2022-12-28T22:36:17.908Z,6.46
2022-12-28T22:38:46.631Z,6.43
2022-12-28T22:41:15.159Z,6.38
2022-12-28T22:43:43.673Z,6.37
2022-12-28T22:46:12.408Z,6.40
2022-12-28T22:48:40.896Z,6.48
2022-12-28T22:51:12.667Z,6.57
2022-12-28T22:53:42.166Z,6.62
2022-12-28T22:56:15.842Z,6.59
2022-12-28T22:58:44.436Z,6.59
2022-12-28T23:01:18.934Z,6.60
2022-12-28T23:03:48.687Z,6.58
2022-12-28T23:06:19.799Z,6.54
2022-12-28T23:08:48.545Z,6.52
2022-12-28T23:11:36.784Z,6.52
2022-12-28T23:14:27.936Z,6.56
2022-12-28T23:16:56.917Z,6.58
2022-12-28T23:19:45.514Z,6.55
2022-12-28T23:22:36.871Z,6.51
2022-12-28T23:25:24.360Z,6.51
2022-12-28T23:27:52.828Z,6.51
2022-12-28T23:30:22.531Z,6.51
2022-12-28T23:32:53.114Z,6.54
2022-12-28T23:35:24.374Z,6.59
2022-12-28T23:37:53.827Z,6.64
2022-12-28T23:40:23.067Z,6.66
2022-12-28T23:42:54.191Z,6.71
2022-12-28T23:45:23.061Z,6.71
2022-12-28T23:47:55.445Z,6.74
2022-12-28T23:50:24.100Z,6.76
2022-12-28T23:52:52.886Z,6.72
2022-12-28T23:55:21.618Z,6.73
2022-12-28T23:57:50.001Z,6.75
